Time;durP1;ratioP1;P1;durP2;ratioP2;P2;SDS_P1;SDS_P2;PMS_P1;PMS_P2;Temp;Humidity;BMP_temperature;BMP_pressure;BME280_temperature;BME280_humidity;BME280_pressure;Samples;Min_cycle;Max_cycle;Signal;HPM_P1;HPM_P2
2021/07/12 00:00:34;;;;;;;12.40;10.05;;;21.50;99.90;;;;;;6217667;23;20202;-72
2021/07/12 00:03:02;;;;;;;8.82;7.68;;;21.50;99.90;;;;;;6217473;23;20177;-72
2021/07/12 00:05:31;;;;;;;20.05;13.65;;;21.50;99.90;;;;;;6217517;23;20269;-72
2021/07/12 00:07:58;;;;;;;19.50;14.10;;;21.50;99.90;;;;;;6217553;23;20166;-72
2021/07/12 00:10:28;;;;;;;12.40;8.45;;;21.40;99.90;;;;;;6217187;23;20249;-71
2021/07/12 00:12:56;;;;;;;9.82;7.50;;;21.40;99.90;;;;;;6217765;23;20252;-71
2021/07/12 00:15:25;;;;;;;9.45;7.32;;;21.40;99.90;;;;;;6216399;23;20174;-72
2021/07/12 00:17:52;;;;;;;9.45;7.95;;;21.40;99.90;;;;;;6216005;23;20174;-72
2021/07/12 00:20:19;;;;;;;10.18;8.20;;;21.40;99.90;;;;;;6217714;23;20738;-71
2021/07/12 00:22:47;;;;;;;9.80;7.60;;;21.30;99.90;;;;;;6217868;23;20174;-71
2021/07/12 00:25:15;;;;;;;12.10;8.50;;;21.40;99.90;;;;;;6217707;23;20208;-71
2021/07/12 00:27:43;;;;;;;10.13;7.60;;;21.40;99.90;;;;;;6218101;23;20174;-72
2021/07/12 00:30:13;;;;;;;11.93;8.57;;;21.40;99.90;;;;;;6217500;23;20241;-70
2021/07/12 00:32:40;;;;;;;12.55;9.65;;;21.40;99.90;;;;;;6217673;23;20265;-71
2021/07/12 00:35:09;;;;;;;8.50;7.50;;;21.40;99.90;;;;;;6217596;23;20202;-71
2021/07/12 00:37:36;;;;;;;11.20;8.38;;;21.40;99.90;;;;;;6217567;23;20185;-70
2021/07/12 00:40:05;;;;;;;15.25;10.18;;;21.40;99.90;;;;;;6217399;23;20197;-71
2021/07/12 00:42:32;;;;;;;7.93;5.93;;;21.40;99.90;;;;;;6217895;23;20201;-72
2021/07/12 00:45:00;;;;;;;6.75;5.30;;;21.40;99.90;;;;;;6216819;23;20502;-70
2021/07/12 00:47:27;;;;;;;11.98;7.80;;;21.30;99.90;;;;;;6218033;23;20558;-71
2021/07/12 00:49:54;;;;;;;6.80;6.10;;;21.20;99.90;;;;;;6217304;23;20185;-71
2021/07/12 00:52:21;;;;;;;7.07;6.05;;;21.20;99.90;;;;;;6217126;23;20178;-72
2021/07/12 00:54:48;;;;;;;9.95;8.98;;;21.10;99.90;;;;;;6215723;23;20260;-72
2021/07/12 00:57:15;;;;;;;6.45;5.78;;;21.10;99.90;;;;;;6216789;23;20493;-70
2021/07/12 00:59:42;;;;;;;8.80;7.35;;;21.10;99.90;;;;;;6215835;23;20198;-70
2021/07/12 01:02:10;;;;;;;6.93;6.20;;;21.00;99.90;;;;;;6215794;23;20178;-72
2021/07/12 01:04:38;;;;;;;7.47;6.70;;;21.00;99.90;;;;;;6215092;23;20678;-71
2021/07/12 01:07:10;;;;;;;9.57;6.55;;;20.90;99.90;;;;;;6215969;23;20496;-71
2021/07/12 01:09:37;;;;;;;10.38;7.90;;;20.90;99.90;;;;;;6216356;23;20189;-71
2021/07/12 01:12:16;;;;;;;12.00;9.00;;;20.90;99.90;;;;;;6215494;23;20461;-72
2021/07/12 01:14:51;;;;;;;9.95;8.13;;;20.90;99.90;;;;;;6214781;23;20249;-72
2021/07/12 01:17:25;;;;;;;9.68;7.80;;;21.00;99.90;;;;;;6215296;23;20485;-71
2021/07/12 01:20:36;;;;;;;11.35;8.30;;;21.00;99.90;;;;;;6215810;23;20293;-72
2021/07/12 01:23:16;;;;;;;7.18;6.47;;;21.00;99.90;;;;;;6215870;23;20228;-71
2021/07/12 01:26:28;;;;;;;8.63;7.72;;;21.00;99.90;;;;;;6215080;23;20249;-72
2021/07/12 01:29:18;;;;;;;15.85;10.45;;;20.90;99.90;;;;;;6214940;23;20166;-72
2021/07/12 01:32:18;;;;;;;8.98;7.38;;;20.90;99.90;;;;;;6215994;23;20558;-72
2021/07/12 01:34:55;;;;;;;11.07;8.80;;;20.80;99.90;;;;;;6215705;23;20604;-70
2021/07/12 01:37:30;;;;;;;10.13;7.45;;;20.80;99.90;;;;;;6215682;23;20228;-72
2021/07/12 01:40:03;;;;;;;7.70;6.80;;;20.80;99.90;;;;;;6215925;23;20193;-72
2021/07/12 01:42:38;;;;;;;12.05;8.85;;;20.80;99.90;;;;;;6215973;23;20625;-72
2021/07/12 01:45:09;;;;;;;11.88;9.40;;;20.70;99.90;;;;;;6215149;23;20209;-71
2021/07/12 01:47:44;;;;;;;21.58;15.38;;;20.70;99.90;;;;;;6214612;23;20174;-72
2021/07/12 01:50:19;;;;;;;12.32;9.05;;;20.70;99.90;;;;;;6215023;23;20165;-71
2021/07/12 01:53:13;;;;;;;12.75;10.18;;;20.80;99.90;;;;;;6214889;23;20170;-71
2021/07/12 01:55:49;;;;;;;8.30;6.97;;;20.80;99.90;;;;;;6214061;23;20185;-71
2021/07/12 01:58:24;;;;;;;12.20;9.60;;;20.80;99.90;;;;;;6215645;23;20169;-72
2021/07/12 02:00:51;;;;;;;9.40;7.90;;;20.80;99.90;;;;;;6216191;23;20189;-71
2021/07/12 02:03:20;;;;;;;15.68;10.60;;;20.80;99.90;;;;;;6215913;23;20636;-72
2021/07/12 02:05:49;;;;;;;7.95;7.13;;;20.90;99.90;;;;;;6215604;23;20233;-71
2021/07/12 02:08:21;;;;;;;7.72;6.95;;;20.80;99.90;;;;;;6216886;23;20185;-71
2021/07/12 02:10:50;;;;;;;8.98;7.18;;;20.80;99.90;;;;;;6217581;23;20544;-71
2021/07/12 02:13:18;;;;;;;6.28;5.78;;;20.70;99.90;;;;;;6218109;23;20611;-72
2021/07/12 02:15:47;;;;;;;9.07;7.30;;;20.70;99.90;;;;;;6218085;23;20186;-71
2021/07/12 02:18:14;;;;;;;8.25;6.32;;;20.70;99.90;;;;;;6218360;23;20174;-70
2021/07/12 02:20:42;;;;;;;7.78;6.97;;;20.70;99.90;;;;;;6225043;23;20198;-71
2021/07/12 02:23:11;;;;;;;9.57;7.53;;;20.70;99.90;;;;;;6227088;23;20212;-71
2021/07/12 02:25:40;;;;;;;9.95;7.10;;;20.70;99.90;;;;;;6223653;23;20178;-71
2021/07/12 02:28:08;;;;;;;8.00;6.78;;;20.70;99.90;;;;;;6226135;23;20254;-71
2021/07/12 02:30:36;;;;;;;7.90;6.63;;;20.70;99.90;;;;;;6225649;23;20252;-72
2021/07/12 02:33:05;;;;;;;12.65;11.18;;;20.70;99.90;;;;;;6226418;23;20329;-72
2021/07/12 02:35:33;;;;;;;10.77;7.47;;;20.70;99.90;;;;;;6224776;23;20230;-71
2021/07/12 02:38:01;;;;;;;9.88;6.60;;;20.70;99.90;;;;;;6224164;23;20568;-71
2021/07/12 02:40:29;;;;;;;11.60;9.23;;;20.60;99.90;;;;;;6222916;23;20205;-71
2021/07/12 02:42:59;;;;;;;12.65;9.35;;;20.60;99.90;;;;;;6220990;23;20194;-72
2021/07/12 02:45:27;;;;;;;14.50;11.15;;;20.60;99.90;;;;;;6215014;23;20162;-71
2021/07/12 02:47:54;;;;;;;6.80;5.60;;;20.60;99.90;;;;;;6213990;23;20233;-71
2021/07/12 02:50:21;;;;;;;7.60;6.68;;;20.60;99.90;;;;;;6214599;23;20174;-71
2021/07/12 02:52:53;;;;;;;6.72;6.03;;;20.60;99.90;;;;;;6214517;23;20178;-71
2021/07/12 02:55:20;;;;;;;6.93;6.10;;;20.60;99.90;;;;;;6214454;23;20162;-71
2021/07/12 02:57:48;;;;;;;7.00;6.32;;;20.60;99.90;;;;;;6215065;23;20174;-72
2021/07/12 03:00:16;;;;;;;8.77;7.53;;;20.60;99.90;;;;;;6214654;23;20269;-72
2021/07/12 03:02:43;;;;;;;15.93;8.15;;;20.60;99.90;;;;;;6215268;23;20261;-72
2021/07/12 03:05:11;;;;;;;7.78;7.05;;;20.50;99.90;;;;;;6214505;23;20178;-71
2021/07/12 03:07:45;;;;;;;7.85;6.72;;;20.60;99.90;;;;;;6214583;23;20177;-70
2021/07/12 03:10:17;;;;;;;7.70;5.97;;;20.60;99.90;;;;;;6214755;23;20184;-72
2021/07/12 03:12:50;;;;;;;11.05;6.90;;;20.60;99.90;;;;;;6213999;23;20172;-71
2021/07/12 03:15:20;;;;;;;8.43;6.88;;;20.60;99.90;;;;;;6214929;23;20166;-70
2021/07/12 03:17:51;;;;;;;9.10;6.50;;;20.70;99.90;;;;;;6215215;23;20245;-71
2021/07/12 03:20:19;;;;;;;7.53;6.15;;;20.70;99.90;;;;;;6215357;23;20197;-72
2021/07/12 03:22:50;;;;;;;7.55;6.45;;;20.70;99.90;;;;;;6214463;23;20619;-72
2021/07/12 03:25:22;;;;;;;9.32;6.80;;;20.70;99.90;;;;;;6214540;23;20173;-71
2021/07/12 03:27:52;;;;;;;8.38;5.70;;;20.70;99.90;;;;;;6213384;23;20217;-71
2021/07/12 03:30:20;;;;;;;9.10;7.18;;;20.80;99.90;;;;;;6214296;23;20162;-71
2021/07/12 03:32:48;;;;;;;17.60;10.10;;;20.80;99.90;;;;;;6214018;23;20185;-71
2021/07/12 03:35:16;;;;;;;8.30;6.20;;;20.80;99.90;;;;;;6213574;23;20184;-72
2021/07/12 03:37:44;;;;;;;10.80;8.55;;;20.90;99.90;;;;;;6213312;23;20182;-70
2021/07/12 03:40:14;;;;;;;10.38;7.20;;;20.90;99.90;;;;;;6213813;23;20198;-71
2021/07/12 03:42:41;;;;;;;6.60;6.00;;;21.00;99.90;;;;;;6213745;23;20216;-71
2021/07/12 03:45:11;;;;;;;13.15;10.40;;;21.00;99.90;;;;;;6213939;23;20201;-72
2021/07/12 03:47:39;;;;;;;7.30;5.60;;;21.00;99.90;;;;;;6214380;23;20276;-71
2021/07/12 03:50:10;;;;;;;8.23;5.55;;;21.10;99.90;;;;;;6214284;23;20232;-72
2021/07/12 03:52:42;;;;;;;7.28;6.00;;;21.10;99.90;;;;;;6214356;23;20507;-71
2021/07/12 03:55:11;;;;;;;8.27;6.55;;;21.20;99.90;;;;;;6214286;23;20554;-71
2021/07/12 03:57:38;;;;;;;10.10;8.32;;;21.30;99.90;;;;;;6214064;23;20241;-72
2021/07/12 04:00:08;;;;;;;11.60;8.32;;;21.30;99.90;;;;;;6214210;23;20177;-71
2021/07/12 04:02:37;;;;;;;10.43;7.30;;;21.40;99.90;;;;;;6214247;23;20205;-72
2021/07/12 04:05:05;;;;;;;7.40;6.60;;;21.40;99.90;;;;;;6213960;23;20205;-71
2021/07/12 04:07:31;;;;;;;13.13;7.32;;;21.50;99.90;;;;;;6213268;23;20180;-71
2021/07/12 04:09:58;;;;;;;6.80;6.20;;;21.50;99.90;;;;;;6213633;23;20188;-72
2021/07/12 04:12:25;;;;;;;7.00;6.32;;;21.60;99.90;;;;;;6213597;23;20281;-72
2021/07/12 04:14:53;;;;;;;9.68;6.18;;;21.60;99.90;;;;;;6186906;23;20185;-71
2021/07/12 04:17:20;;;;;;;7.22;6.53;;;21.60;99.90;;;;;;6213400;23;20222;-71
2021/07/12 04:19:49;;;;;;;8.90;7.13;;;21.60;99.90;;;;;;6212824;23;20253;-71
2021/07/12 04:22:16;;;;;;;8.23;6.90;;;21.60;99.90;;;;;;6213942;23;20669;-72
2021/07/12 04:24:42;;;;;;;7.90;7.00;;;21.60;99.90;;;;;;6214100;23;20209;-71
2021/07/12 04:27:09;;;;;;;9.27;6.57;;;21.70;99.90;;;;;;6214516;23;20181;-72
2021/07/12 04:29:36;;;;;;;7.03;6.32;;;21.70;99.90;;;;;;6213650;23;20189;-71
2021/07/12 04:32:04;;;;;;;9.02;6.35;;;21.80;99.90;;;;;;6214315;23;20201;-71
2021/07/12 04:34:31;;;;;;;8.65;7.20;;;21.80;99.90;;;;;;6213743;23;20173;-70
2021/07/12 04:36:59;;;;;;;8.50;7.38;;;21.80;99.90;;;;;;6215702;23;20646;-72
2021/07/12 04:39:26;;;;;;;8.30;6.60;;;21.80;99.90;;;;;;6215374;23;20556;-71
2021/07/12 04:41:54;;;;;;;9.32;7.13;;;21.80;99.90;;;;;;6216245;23;20214;-71
2021/07/12 04:44:21;;;;;;;10.20;7.05;;;21.70;99.90;;;;;;6214887;23;20202;-71
2021/07/12 04:46:48;;;;;;;7.60;6.90;;;21.80;99.90;;;;;;6215579;23;20182;-71
2021/07/12 04:49:15;;;;;;;11.50;7.35;;;21.80;99.90;;;;;;6215687;23;20185;-71
2021/07/12 04:51:43;;;;;;;9.18;7.40;;;21.90;99.90;;;;;;6215207;23;20177;-71
2021/07/12 04:54:11;;;;;;;8.27;7.47;;;22.00;99.90;;;;;;6214361;23;20193;-71
2021/07/12 04:56:38;;;;;;;10.57;7.72;;;22.10;99.90;;;;;;6214011;23;20178;-72
2021/07/12 04:59:07;;;;;;;8.88;7.82;;;22.20;99.90;;;;;;6215994;23;20174;-71
2021/07/12 05:01:34;;;;;;;8.30;7.43;;;22.30;99.90;;;;;;6215079;23;20708;-71
2021/07/12 05:04:02;;;;;;;8.80;7.78;;;22.40;99.90;;;;;;6216284;23;20639;-72
2021/07/12 05:06:29;;;;;;;10.38;7.55;;;22.40;99.90;;;;;;6215736;23;20257;-71
2021/07/12 05:08:56;;;;;;;8.70;7.43;;;22.50;99.90;;;;;;6215506;23;20256;-72
2021/07/12 05:11:25;;;;;;;8.90;8.00;;;22.60;99.90;;;;;;6215968;23;20180;-72
2021/07/12 05:13:53;;;;;;;9.90;9.00;;;22.70;99.90;;;;;;6214279;23;20184;-71
2021/07/12 05:16:20;;;;;;;8.65;7.72;;;22.70;99.90;;;;;;6215670;23;20180;-71
2021/07/12 05:18:47;;;;;;;10.20;8.48;;;22.80;99.90;;;;;;6214589;23;20178;-72
2021/07/12 05:21:14;;;;;;;9.25;8.10;;;22.80;99.90;;;;;;6215512;23;20210;-71
2021/07/12 05:23:42;;;;;;;9.25;8.45;;;22.90;99.90;;;;;;6214699;23;20188;-71
2021/07/12 05:26:09;;;;;;;10.10;9.05;;;23.00;99.90;;;;;;6212824;23;20221;-71
2021/07/12 05:28:37;;;;;;;9.85;8.85;;;23.00;99.90;;;;;;6215400;23;20188;-71
2021/07/12 05:31:04;;;;;;;10.52;9.20;;;23.00;99.90;;;;;;6215296;23;20181;-70
2021/07/12 05:33:31;;;;;;;9.20;8.43;;;23.00;99.90;;;;;;6213993;23;20174;-72
2021/07/12 05:35:58;;;;;;;11.48;9.65;;;23.10;99.90;;;;;;6214225;23;20178;-70
2021/07/12 05:38:25;;;;;;;9.90;9.00;;;23.10;99.90;;;;;;6215440;23;20178;-71
2021/07/12 05:40:52;;;;;;;12.13;9.95;;;23.10;99.90;;;;;;6214307;23;20277;-71
2021/07/12 05:43:19;;;;;;;11.13;9.40;;;23.10;99.90;;;;;;6214467;23;20647;-71
2021/07/12 05:45:47;;;;;;;12.02;9.30;;;23.10;99.90;;;;;;6214156;23;20162;-71
2021/07/12 05:48:14;;;;;;;10.77;8.77;;;23.20;99.90;;;;;;6213321;23;20185;-71
2021/07/12 05:50:41;;;;;;;11.18;9.15;;;23.20;99.90;;;;;;6213689;23;20197;-69
2021/07/12 05:53:08;;;;;;;10.45;9.35;;;23.30;99.90;;;;;;6213272;23;20178;-71
